createdAt,value
2022-11-13T00:01:24.086Z,102417.72
2022-11-13T00:03:51.342Z,102412.81
2022-11-13T00:06:19.565Z,102402.97
2022-11-13T00:08:47.680Z,102406.69
2022-11-13T00:11:18.745Z,102409.34
2022-11-13T00:13:46.639Z,102405.16
2022-11-13T00:16:17.957Z,102394.69
2022-11-13T00:18:46.066Z,102401.03
2022-11-13T00:21:17.819Z,102397.03
2022-11-13T00:23:44.956Z,102382.56
2022-11-13T00:26:24.696Z,102373.75
2022-11-13T00:29:01.293Z,102377.91
2022-11-13T00:31:29.208Z,102377.66
2022-11-13T00:36:45.140Z,102361.94
2022-11-13T00:39:12.014Z,102357.75
2022-11-13T00:41:38.900Z,102363.91
2022-11-13T00:44:06.282Z,102364.00
2022-11-13T00:46:33.162Z,102350.22
2022-11-13T00:49:00.068Z,102359.19
2022-11-13T00:51:27.096Z,102367.13
2022-11-13T00:53:54.000Z,102364.16
2022-11-13T00:56:21.060Z,102357.91
2022-11-13T00:58:47.979Z,102359.75
2022-11-13T01:01:18.498Z,102357.16
2022-11-13T01:03:45.736Z,102361.50
2022-11-13T01:06:24.617Z,102364.00
2022-11-13T01:08:54.612Z,102350.13
2022-11-13T01:11:25.279Z,102352.16
2022-11-13T01:13:52.952Z,102356.25
2022-11-13T01:16:23.549Z,102362.44
2022-11-13T01:18:50.826Z,102364.44
2022-11-13T01:21:24.724Z,102346.13
2022-11-13T01:23:52.103Z,102360.66
2022-11-13T01:26:26.783Z,102347.44
2022-11-13T01:28:55.089Z,102355.03
2022-11-13T01:31:27.236Z,102349.19
2022-11-13T01:33:54.423Z,102351.47
2022-11-13T01:36:25.416Z,102347.13
2022-11-13T01:38:53.286Z,102342.63
2022-11-13T01:41:33.827Z,102346.41
2022-11-13T01:44:01.851Z,102337.38
2022-11-13T01:46:42.932Z,102334.91
2022-11-13T01:49:09.735Z,102335.94
2022-11-13T01:51:40.645Z,102335.94
2022-11-13T01:54:13.193Z,102325.34
2022-11-13T01:56:40.993Z,102325.13
2022-11-13T01:59:20.787Z,102323.06
2022-11-13T02:01:48.189Z,102319.56
2022-11-13T02:04:15.164Z,102319.50
2022-11-13T02:06:55.575Z,102319.06
2022-11-13T02:09:48.733Z,102306.50
2022-11-13T02:12:39.473Z,102303.84
2022-11-13T02:15:08.784Z,102300.22
2022-11-13T02:17:55.859Z,102297.66
2022-11-13T02:20:32.802Z,102283.53
2022-11-13T02:23:14.767Z,102289.59
2022-11-13T02:25:43.661Z,102284.91
2022-11-13T02:28:10.685Z,102278.31
2022-11-13T02:30:37.937Z,102277.59
2022-11-13T02:33:30.088Z,102281.28
2022-11-13T02:35:57.639Z,102273.81
2022-11-13T02:38:24.753Z,102276.31
2022-11-13T02:40:51.846Z,102270.84
2022-11-13T02:43:18.739Z,102267.63
2022-11-13T02:45:54.013Z,102267.31
2022-11-13T02:48:20.936Z,102278.69
2022-11-13T02:50:48.024Z,102277.66
2022-11-13T02:53:14.913Z,102267.88
2022-11-13T02:55:41.895Z,102276.59
2022-11-13T02:58:08.847Z,102275.13
2022-11-13T03:00:35.757Z,102267.16
2022-11-13T03:03:02.749Z,102273.94
2022-11-13T03:05:29.709Z,102264.66
2022-11-13T03:07:56.590Z,102266.34
2022-11-13T03:10:23.565Z,102267.94
2022-11-13T03:12:50.469Z,102264.88
2022-11-13T03:15:17.613Z,102270.38
2022-11-13T03:17:44.481Z,102264.56
2022-11-13T03:20:11.385Z,102263.31
2022-11-13T03:22:38.348Z,102264.88
2022-11-13T03:25:10.201Z,102257.69
2022-11-13T03:27:37.785Z,102261.81
2022-11-13T03:30:05.780Z,102259.59
2022-11-13T03:32:32.663Z,102256.28
2022-11-13T03:34:59.557Z,102255.66
2022-11-13T03:37:26.498Z,102271.00
2022-11-13T03:39:53.430Z,102266.84
2022-11-13T03:42:20.298Z,102261.03
2022-11-13T03:44:47.307Z,102264.16
2022-11-13T03:47:15.196Z,102249.06
2022-11-13T03:49:42.121Z,102250.06
2022-11-13T03:52:09.067Z,102243.06
2022-11-13T03:54:36.031Z,102243.69
2022-11-13T03:57:02.982Z,102245.88
2022-11-13T03:59:29.915Z,102234.25
2022-11-13T04:01:56.841Z,102239.28
2022-11-13T04:04:23.926Z,102246.13
2022-11-13T04:06:50.881Z,102230.94
2022-11-13T04:09:17.914Z,102227.16
2022-11-13T04:11:44.885Z,102231.81
2022-11-13T04:14:11.766Z,102223.47
2022-11-13T04:16:38.843Z,102218.66
2022-11-13T04:19:05.865Z,102223.09
2022-11-13T04:21:32.814Z,102230.41
2022-11-13T04:23:59.710Z,102225.81
2022-11-13T04:26:26.601Z,102227.66
2022-11-13T04:28:53.510Z,102233.31
2022-11-13T04:31:20.467Z,102235.50
2022-11-13T04:33:47.363Z,102222.97
2022-11-13T04:36:14.297Z,102220.16
2022-11-13T04:38:41.193Z,102211.59
2022-11-13T04:41:27.142Z,102218.19
2022-11-13T04:43:54.006Z,102201.66
2022-11-13T04:46:20.866Z,102198.09
2022-11-13T04:48:47.744Z,102203.00
2022-11-13T04:51:14.646Z,102197.00
2022-11-13T04:53:41.548Z,102205.47
2022-11-13T04:56:08.457Z,102210.09
2022-11-13T04:58:35.371Z,102205.44
2022-11-13T05:01:04.073Z,102195.47
2022-11-13T05:03:31.028Z,102193.84
2022-11-13T05:06:09.393Z,102193.69
2022-11-13T05:08:36.888Z,102193.44
2022-11-13T05:11:04.308Z,102182.06
2022-11-13T05:13:33.858Z,102184.13
2022-11-13T05:16:10.080Z,102189.31
2022-11-13T05:18:38.861Z,102183.75
2022-11-13T05:21:08.288Z,102181.53
2022-11-13T05:23:35.846Z,102178.13
2022-11-13T05:26:09.704Z,102173.72
2022-11-13T05:28:37.530Z,102170.63
2022-11-13T05:31:11.335Z,102171.88
2022-11-13T05:33:40.190Z,102173.72
2022-11-13T05:36:13.738Z,102174.28
2022-11-13T05:38:41.711Z,102169.38
2022-11-13T05:41:18.566Z,102168.53
2022-11-13T05:43:46.367Z,102157.41
2022-11-13T05:46:14.620Z,102161.13
2022-11-13T05:48:42.571Z,102156.78
2022-11-13T05:51:17.075Z,102154.94
2022-11-13T05:53:44.881Z,102149.00
2022-11-13T05:56:34.898Z,102161.69
2022-11-13T05:59:03.369Z,102144.06
2022-11-13T06:01:36.778Z,102142.19
2022-11-13T06:04:06.418Z,102138.16
2022-11-13T06:06:34.108Z,102137.19
2022-11-13T06:09:04.352Z,102133.97
2022-11-13T06:11:32.269Z,102137.13
2022-11-13T06:14:00.111Z,102123.47
2022-11-13T06:16:34.161Z,102128.63
2022-11-13T06:19:06.051Z,102125.25
2022-11-13T06:21:35.890Z,102122.56
2022-11-13T06:24:03.341Z,102123.53
2022-11-13T06:26:33.476Z,102124.97
2022-11-13T06:29:02.685Z,102121.19
2022-11-13T06:31:33.347Z,102125.97
2022-11-13T06:34:01.431Z,102125.63
2022-11-13T06:36:35.620Z,102128.53
2022-11-13T06:39:06.167Z,102122.59
2022-11-13T06:41:33.132Z,102118.56
2022-11-13T06:44:03.163Z,102125.78
2022-11-13T06:46:31.793Z,102115.22
2022-11-13T06:48:59.019Z,102118.28
2022-11-13T06:51:29.469Z,102130.44
2022-11-13T06:53:57.029Z,102131.50
2022-11-13T06:56:24.451Z,102130.56
2022-11-13T06:58:51.441Z,102135.09
2022-11-13T07:01:22.652Z,102132.69
2022-11-13T07:03:49.859Z,102137.34
2022-11-13T07:06:20.982Z,102126.75
2022-11-13T07:08:48.450Z,102131.28
2022-11-13T07:11:23.427Z,102130.19
2022-11-13T07:13:50.710Z,102138.31
2022-11-13T07:16:18.678Z,102140.44
2022-11-13T07:18:55.112Z,102135.81
2022-11-13T07:21:23.003Z,102126.28
2022-11-13T07:23:50.962Z,102128.56
2022-11-13T07:26:18.624Z,102130.94
2022-11-13T07:28:46.613Z,102131.06
2022-11-13T07:31:16.142Z,102140.09
2022-11-13T07:33:43.336Z,102135.97
2022-11-13T07:36:11.349Z,102140.44
2022-11-13T07:38:38.293Z,102131.28
2022-11-13T07:41:06.052Z,102129.03
2022-11-13T07:43:33.088Z,102127.50
2022-11-13T07:46:01.131Z,102126.19
2022-11-13T07:48:28.936Z,102135.34
2022-11-13T07:51:00.091Z,102137.81
2022-11-13T07:53:27.030Z,102139.03
2022-11-13T07:55:53.978Z,102131.84
2022-11-13T07:58:20.912Z,102132.28
2022-11-13T08:00:47.956Z,102134.59
2022-11-13T08:03:17.038Z,102144.16
2022-11-13T08:05:47.669Z,102141.28
2022-11-13T08:08:15.487Z,102132.47
2022-11-13T08:10:42.808Z,102140.09
2022-11-13T08:13:10.949Z,102133.06
2022-11-13T08:15:38.708Z,102142.81
2022-11-13T08:18:06.525Z,102135.81
2022-11-13T08:20:34.323Z,102131.41
2022-11-13T08:23:04.593Z,102130.91
2022-11-13T08:25:33.821Z,102136.41
2022-11-13T08:28:00.998Z,102130.31
2022-11-13T08:30:29.068Z,102140.84
2022-11-13T08:32:56.097Z,102127.34
2022-11-13T08:35:29.159Z,102132.22
2022-11-13T08:38:06.695Z,102134.53
2022-11-13T08:40:34.864Z,102124.97
2022-11-13T08:43:03.778Z,102121.28
2022-11-13T08:45:31.561Z,102130.56
2022-11-13T08:48:03.444Z,102124.25
2022-11-13T08:50:31.991Z,102128.75
2022-11-13T08:53:00.943Z,102125.88
2022-11-13T08:55:28.637Z,102119.19
2022-11-13T08:58:00.279Z,102117.47
2022-11-13T09:00:28.825Z,102116.75
2022-11-13T09:03:00.577Z,102110.59
2022-11-13T09:05:27.764Z,102095.63
2022-11-13T09:08:01.827Z,102093.94
2022-11-13T09:10:29.673Z,102074.03
2022-11-13T09:13:01.561Z,102076.84
2022-11-13T09:15:30.883Z,102073.34
2022-11-13T09:17:59.961Z,102068.63
2022-11-13T09:20:29.315Z,102077.13
2022-11-13T09:23:05.856Z,102076.94
2022-11-13T09:25:37.873Z,102063.91
2022-11-13T09:28:06.698Z,102061.47
2022-11-13T09:30:33.931Z,102062.38
2022-11-13T09:33:02.033Z,102054.09
2022-11-13T09:35:34.558Z,102055.41
2022-11-13T09:38:11.127Z,102057.78
2022-11-13T09:40:47.735Z,102051.09
2022-11-13T09:43:43.856Z,102049.34
2022-11-13T09:46:32.438Z,102051.31
2022-11-13T09:49:07.198Z,102048.16
2022-11-13T09:51:38.068Z,102045.34
2022-11-13T09:54:14.711Z,102050.31
2022-11-13T09:56:57.371Z,102054.00
2022-11-13T09:59:49.073Z,102054.13
2022-11-13T10:02:27.876Z,102056.03
2022-11-13T10:05:25.419Z,102047.06
2022-11-13T10:08:07.973Z,102047.97
2022-11-13T10:10:56.085Z,102051.00
2022-11-13T10:13:33.348Z,102037.53
2022-11-13T10:16:50.563Z,102032.75
2022-11-13T10:20:02.267Z,102021.66
2022-11-13T10:23:17.103Z,102020.13
2022-11-13T10:25:45.323Z,102018.28
2022-11-13T10:28:49.060Z,102018.66
2022-11-13T10:31:06.649Z,102011.75
2022-11-13T10:33:33.560Z,102006.47
2022-11-13T10:36:16.687Z,101994.63
2022-11-13T10:38:50.114Z,101993.13
2022-11-13T10:41:21.147Z,101995.06
2022-11-13T10:44:20.987Z,101991.22
2022-11-13T10:46:47.981Z,101994.34
2022-11-13T10:49:29.048Z,101979.69
2022-11-13T10:51:58.863Z,101975.47
2022-11-13T10:54:29.640Z,101968.47
2022-11-13T10:57:06.400Z,101958.81
2022-11-13T10:59:51.476Z,101943.50
2022-11-13T11:02:22.451Z,101934.25
2022-11-13T11:04:49.648Z,101929.97
2022-11-13T11:07:22.149Z,101925.13
2022-11-13T11:09:51.145Z,101918.59
2022-11-13T11:12:30.686Z,101916.28
2022-11-13T11:15:00.452Z,101910.38
2022-11-13T11:17:44.136Z,101915.09
2022-11-13T11:20:39.319Z,101902.31
2022-11-13T11:23:32.337Z,101900.78
2022-11-13T11:26:09.289Z,101885.63
2022-11-13T11:28:46.419Z,101881.84
2022-11-13T11:31:44.671Z,101884.75
2022-11-13T11:34:44.386Z,101881.03
2022-11-13T11:37:21.809Z,101865.94
2022-11-13T11:40:08.044Z,101869.63
2022-11-13T11:43:01.686Z,101854.97
2022-11-13T11:45:39.796Z,101853.63
2022-11-13T11:48:17.362Z,101842.13
2022-11-13T11:51:00.257Z,101846.72
2022-11-13T11:53:58.472Z,101843.25
2022-11-13T11:56:40.534Z,101851.03
2022-11-13T11:59:31.303Z,101826.38
2022-11-13T12:02:44.062Z,101835.84
2022-11-13T12:05:19.925Z,101826.56
2022-11-13T12:08:14.906Z,101825.47
2022-11-13T12:11:00.936Z,101826.78
2022-11-13T12:13:37.338Z,101822.13
2022-11-13T12:16:10.257Z,101825.56
2022-11-13T12:19:04.716Z,101826.38
2022-11-13T12:22:07.105Z,101818.78
2022-11-13T12:24:59.982Z,101819.81
2022-11-13T12:27:45.342Z,101810.69
2022-11-13T12:30:28.164Z,101808.06
2022-11-13T12:33:43.832Z,101793.47
2022-11-13T12:36:13.008Z,101786.63
2022-11-13T12:39:03.218Z,101784.03
2022-11-13T12:41:47.052Z,101771.63
2022-11-13T12:44:51.900Z,101777.59
2022-11-13T12:47:18.919Z,101777.84
2022-11-13T12:49:45.825Z,101774.44
2022-11-13T12:52:23.077Z,101791.84
2022-11-13T12:54:52.246Z,101782.84
2022-11-13T12:57:30.158Z,101780.78
2022-11-13T13:00:00.628Z,101789.06
2022-11-13T13:02:45.876Z,101780.09
2022-11-13T13:05:24.908Z,101772.56
2022-11-13T13:08:24.375Z,101779.13
2022-11-13T13:11:32.766Z,101786.13
2022-11-13T13:14:30.382Z,101774.50
2022-11-13T13:17:15.383Z,101777.94
2022-11-13T13:19:42.533Z,101775.81
2022-11-13T13:22:27.657Z,101782.63
2022-11-13T13:25:34.349Z,101763.88
2022-11-13T13:28:18.075Z,101770.84
2022-11-13T13:31:00.472Z,101768.63
2022-11-13T13:33:38.034Z,101755.13
2022-11-13T13:36:18.884Z,101756.78
2022-11-13T13:39:16.559Z,101761.47
2022-11-13T13:42:24.154Z,101763.06
2022-11-13T13:45:27.936Z,101759.31
2022-11-13T13:47:57.581Z,101755.41
2022-11-13T13:50:38.888Z,101751.31
2022-11-13T13:53:07.075Z,101749.66
2022-11-13T13:55:39.868Z,101743.53
2022-11-13T13:58:15.755Z,101741.59
2022-11-13T14:00:59.344Z,101738.22
2022-11-13T14:03:31.103Z,101736.63
2022-11-13T14:06:20.171Z,101740.06
2022-11-13T14:08:48.396Z,101728.44
2022-11-13T14:11:27.275Z,101727.25
2022-11-13T14:13:54.235Z,101724.81
2022-11-13T14:16:21.145Z,101728.19
2022-11-13T14:18:48.128Z,101726.00
2022-11-13T14:21:22.083Z,101715.84
2022-11-13T14:23:52.035Z,101711.34
2022-11-13T14:26:20.840Z,101709.91
2022-11-13T14:28:57.510Z,101705.34
2022-11-13T14:31:32.468Z,101701.06
2022-11-13T14:34:10.675Z,101700.97
2022-11-13T14:36:38.901Z,101695.75
2022-11-13T14:39:05.799Z,101689.25
2022-11-13T14:41:46.727Z,101695.59
2022-11-13T14:44:13.648Z,101689.28
2022-11-13T14:46:47.494Z,101702.69
2022-11-13T14:49:36.614Z,101687.56
2022-11-13T14:52:04.439Z,101688.47
2022-11-13T14:55:08.090Z,101677.00
2022-11-13T14:57:24.145Z,101687.69
2022-11-13T14:59:51.074Z,101688.69
2022-11-13T15:02:17.988Z,101678.16
2022-11-13T15:04:44.868Z,101673.16
2022-11-13T15:07:31.851Z,101663.91
2022-11-13T15:09:59.750Z,101669.19
2022-11-13T15:12:26.920Z,101672.94
2022-11-13T15:14:53.943Z,101667.47
2022-11-13T15:17:22.312Z,101663.72
2022-11-13T15:19:53.864Z,101650.53
2022-11-13T15:22:27.094Z,101661.19
2022-11-13T15:24:54.757Z,101646.59
2022-11-13T15:27:21.688Z,101652.69
2022-11-13T15:29:48.614Z,101649.81
2022-11-13T15:32:16.175Z,101647.38
2022-11-13T15:34:43.306Z,101648.78
2022-11-13T15:37:15.826Z,101654.59
2022-11-13T15:39:43.064Z,101657.50
2022-11-13T15:42:27.230Z,101648.59
2022-11-13T15:44:54.113Z,101654.50
2022-11-13T15:47:35.177Z,101645.69
2022-11-13T15:50:47.722Z,101650.59
2022-11-13T15:53:14.714Z,101647.16
2022-11-13T15:55:42.158Z,101642.44
2022-11-13T15:58:16.202Z,101643.81
2022-11-13T16:00:45.961Z,101634.69
2022-11-13T16:03:12.947Z,101636.06
2022-11-13T16:05:39.953Z,101629.09
2022-11-13T16:08:15.433Z,101624.97
2022-11-13T16:10:42.821Z,101626.50
2022-11-13T16:13:09.734Z,101627.47
2022-11-13T16:15:36.774Z,101626.19
2022-11-13T16:18:03.900Z,101622.88
2022-11-13T16:20:30.787Z,101617.47
2022-11-13T16:22:57.785Z,101622.44
2022-11-13T16:25:25.243Z,101616.00
2022-11-13T16:27:52.696Z,101610.03
2022-11-13T16:30:23.253Z,101605.00
2022-11-13T16:32:50.519Z,101616.72
2022-11-13T16:35:19.539Z,101601.22
2022-11-13T16:37:46.752Z,101606.78
2022-11-13T16:40:25.992Z,101604.63
2022-11-13T16:42:53.911Z,101596.09
2022-11-13T16:45:21.964Z,101590.34
2022-11-13T16:47:50.692Z,101593.06
2022-11-13T16:50:23.688Z,101586.44
2022-11-13T16:52:51.390Z,101587.81
2022-11-13T16:55:18.347Z,101589.03
2022-11-13T16:57:45.285Z,101585.28
2022-11-13T17:00:16.241Z,101594.28
2022-11-13T17:02:44.313Z,101598.44
2022-11-13T17:05:16.736Z,101599.38
2022-11-13T17:07:43.855Z,101598.19
2022-11-13T17:10:30.978Z,101594.28
2022-11-13T17:12:58.831Z,101596.03
2022-11-13T17:15:25.735Z,101598.19
2022-11-13T17:17:58.377Z,101595.28
2022-11-13T17:20:25.924Z,101596.09
2022-11-13T17:22:52.905Z,101592.94
2022-11-13T17:25:20.687Z,101591.63
2022-11-13T17:27:47.689Z,101592.31
2022-11-13T17:30:15.956Z,101588.31
2022-11-13T17:32:43.435Z,101593.53
2022-11-13T17:35:13.028Z,101593.19
2022-11-13T17:37:40.213Z,101594.88
2022-11-13T17:40:08.139Z,101592.88
2022-11-13T17:42:35.051Z,101593.06
2022-11-13T17:45:02.091Z,101595.44
2022-11-13T17:47:28.999Z,101594.34
2022-11-13T17:50:01.147Z,101592.53
2022-11-13T17:52:31.082Z,101591.97
2022-11-13T17:54:58.082Z,101594.31
2022-11-13T17:57:27.112Z,101588.38
2022-11-13T17:59:54.318Z,101575.28
2022-11-13T18:02:21.276Z,101576.78
2022-11-13T18:04:48.320Z,101575.97
2022-11-13T18:07:15.295Z,101576.78
2022-11-13T18:09:42.188Z,101582.03
2022-11-13T18:12:09.061Z,101576.38
2022-11-13T18:14:35.966Z,101577.19
2022-11-13T18:17:02.961Z,101569.47
2022-11-13T18:19:30.391Z,101571.84
2022-11-13T18:21:57.348Z,101573.03
2022-11-13T18:24:24.742Z,101564.78
2022-11-13T18:26:51.718Z,101562.72
2022-11-13T18:29:18.752Z,101558.16
2022-11-13T18:31:45.708Z,101550.84
2022-11-13T18:34:16.726Z,101555.00
2022-11-13T18:36:44.070Z,101553.72
2022-11-13T18:39:16.416Z,101558.28
2022-11-13T18:41:43.984Z,101553.81
2022-11-13T18:44:11.010Z,101548.91
2022-11-13T18:46:38.135Z,101546.13
2022-11-13T18:49:05.324Z,101551.66
2022-11-13T18:51:35.531Z,101538.78
2022-11-13T18:54:09.413Z,101526.34
2022-11-13T18:56:36.850Z,101536.59
2022-11-13T18:59:03.909Z,101525.88
2022-11-13T19:01:33.708Z,101526.13
2022-11-13T19:04:22.254Z,101521.03
2022-11-13T19:06:50.599Z,101507.13
2022-11-13T19:09:19.104Z,101513.78
2022-11-13T19:11:46.481Z,101516.75
2022-11-13T19:14:16.029Z,101515.59
2022-11-13T19:16:43.331Z,101508.81
2022-11-13T19:19:20.387Z,101511.47
2022-11-13T19:21:48.127Z,101509.84
2022-11-13T19:24:15.703Z,101502.03
2022-11-13T19:26:43.934Z,101507.19
2022-11-13T19:29:11.082Z,101501.53
2022-11-13T19:31:38.251Z,101509.25
2022-11-13T19:34:07.738Z,101505.31
2022-11-13T19:36:35.997Z,101500.56
2022-11-13T19:39:04.244Z,101510.13
2022-11-13T19:41:31.173Z,101491.91
2022-11-13T19:44:00.277Z,101489.53
2022-11-13T19:46:28.509Z,101481.78
2022-11-13T19:48:55.485Z,101478.88
2022-11-13T19:51:25.442Z,101485.41
2022-11-13T19:53:57.235Z,101474.97
2022-11-13T19:56:25.800Z,101467.41
2022-11-13T19:58:53.139Z,101470.72
2022-11-13T20:01:24.240Z,101467.41
2022-11-13T20:04:00.268Z,101465.28
2022-11-13T20:06:30.384Z,101464.88
2022-11-13T20:08:59.896Z,101460.22
2022-11-13T20:11:27.173Z,101455.06
2022-11-13T20:13:55.571Z,101444.63
2022-11-13T20:16:23.689Z,101442.94
2022-11-13T20:18:51.840Z,101440.56
2022-11-13T20:21:31.563Z,101444.97
2022-11-13T20:23:59.721Z,101433.03
2022-11-13T20:26:27.513Z,101440.88
2022-11-13T20:28:54.532Z,101436.00
2022-11-13T20:31:24.547Z,101434.38
2022-11-13T20:33:54.487Z,101437.06
2022-11-13T20:36:23.223Z,101441.94
2022-11-13T20:38:56.425Z,101437.22
2022-11-13T20:41:25.498Z,101430.59
2022-11-13T20:43:55.752Z,101426.06
2022-11-13T20:46:23.081Z,101418.78
2022-11-13T20:48:50.409Z,101420.31
2022-11-13T20:51:20.766Z,101423.41
2022-11-13T20:53:50.807Z,101430.69
2022-11-13T20:56:19.933Z,101421.22
2022-11-13T20:58:47.394Z,101429.91
2022-11-13T21:01:21.049Z,101425.41
2022-11-13T21:03:48.832Z,101433.19
2022-11-13T21:06:21.753Z,101429.59
2022-11-13T21:08:49.396Z,101427.28
2022-11-13T21:11:25.391Z,101420.03
2022-11-13T21:13:55.392Z,101435.84
2022-11-13T21:16:22.654Z,101429.66
2022-11-13T21:18:49.626Z,101430.59
2022-11-13T21:21:20.674Z,101426.09
2022-11-13T21:23:48.700Z,101423.38
2022-11-13T21:26:16.142Z,101433.22
2022-11-13T21:28:43.233Z,101432.84
2022-11-13T21:31:16.958Z,101429.06
2022-11-13T21:33:45.658Z,101430.97
2022-11-13T21:36:18.284Z,101429.44
2022-11-13T21:38:45.599Z,101420.28
2022-11-13T21:41:24.956Z,101416.38
2022-11-13T21:44:04.720Z,101409.97
2022-11-13T21:46:45.663Z,101400.38
2022-11-13T21:49:13.880Z,101401.22
2022-11-13T21:51:43.035Z,101394.69
2022-11-13T21:54:10.445Z,101397.19
2022-11-13T21:56:38.862Z,101390.56
2022-11-13T21:59:06.891Z,101393.41
2022-11-13T22:01:38.411Z,101377.50
2022-11-13T22:04:06.543Z,101375.53
2022-11-13T22:06:39.668Z,101381.91
2022-11-13T22:09:25.276Z,101389.72
2022-11-13T22:11:52.416Z,101379.91
2022-11-13T22:14:19.370Z,101376.56
2022-11-13T22:16:47.511Z,101366.25
2022-11-13T22:19:23.981Z,101365.66
2022-11-13T22:21:54.321Z,101358.66
2022-11-13T22:24:21.303Z,101367.53
2022-11-13T22:26:48.477Z,101366.13
2022-11-13T22:29:15.663Z,101363.28
2022-11-13T22:31:44.897Z,101354.16
2022-11-13T22:34:12.024Z,101354.50
2022-11-13T22:36:38.974Z,101347.03
2022-11-13T22:39:06.621Z,101331.66
2022-11-13T22:41:35.356Z,101330.38
2022-11-13T22:44:07.045Z,101326.94
2022-11-13T22:46:36.201Z,101324.56
2022-11-13T22:49:05.523Z,101329.19
2022-11-13T22:51:41.258Z,101325.06
2022-11-13T22:54:11.287Z,101323.16
2022-11-13T22:56:40.498Z,101312.81
2022-11-13T22:59:10.780Z,101313.28
2022-11-13T23:01:39.682Z,101304.31
2022-11-13T23:04:11.769Z,101306.09
2022-11-13T23:06:38.732Z,101309.78
2022-11-13T23:09:06.447Z,101295.44
2022-11-13T23:11:38.033Z,101293.41
2022-11-13T23:14:12.460Z,101301.56
2022-11-13T23:16:39.936Z,101286.78
2022-11-13T23:19:07.398Z,101281.91
2022-11-13T23:21:34.368Z,101284.16
2022-11-13T23:24:01.698Z,101280.84
2022-11-13T23:26:28.946Z,101293.19
2022-11-13T23:28:56.873Z,101287.75
2022-11-13T23:31:24.432Z,101278.47
2022-11-13T23:33:51.372Z,101274.19
2022-11-13T23:36:18.503Z,101270.09
2022-11-13T23:38:45.723Z,101281.69
2022-11-13T23:41:13.212Z,101280.59
2022-11-13T23:44:10.088Z,101282.03
2022-11-13T23:46:27.086Z,101272.31
2022-11-13T23:48:54.007Z,101276.31
2022-11-13T23:51:20.893Z,101271.66
2022-11-13T23:53:47.767Z,101278.09
2022-11-13T23:56:14.653Z,101279.22
2022-11-13T23:58:41.589Z,101267.97
